createdAt,value
2023-01-30T00:04:16.824Z,40.38
2023-01-30T00:06:43.888Z,39.83
2023-01-30T00:09:14.973Z,36.70
2023-01-30T00:11:42.509Z,34.72
2023-01-30T00:14:09.208Z,37.67
2023-01-30T00:47:48.688Z,34.40
2023-01-30T00:50:15.549Z,33.13
2023-01-30T00:52:42.110Z,31.20
2023-01-30T00:55:09.110Z,30.58
2023-01-30T00:57:36.864Z,28.62
2023-01-30T01:00:05.462Z,27.55
2023-01-30T01:02:32.065Z,29.60
2023-01-30T01:04:58.608Z,32.50
2023-01-30T01:07:25.161Z,30.02
2023-01-30T01:09:51.703Z,30.92
2023-01-30T01:12:18.271Z,30.80
2023-01-30T01:14:44.865Z,32.13
2023-01-30T01:17:21.014Z,32.50
2023-01-30T01:19:47.577Z,29.00
2023-01-30T01:22:14.161Z,33.22
2023-01-30T01:24:40.695Z,29.08
2023-01-30T01:27:35.532Z,32.13
2023-01-30T01:30:15.259Z,31.55
2023-01-30T01:47:09.513Z,31.90
2023-01-30T01:49:37.467Z,31.10
2023-01-30T01:52:06.711Z,30.70
2023-01-30T01:54:45.504Z,31.55
2023-01-30T01:57:43.140Z,30.70
2023-01-30T02:17:51.712Z,31.70
2023-01-30T02:20:32.270Z,30.75
2023-01-30T02:22:58.759Z,32.03
2023-01-30T02:25:45.447Z,34.17
2023-01-30T02:29:15.024Z,30.33
2023-01-30T02:32:25.702Z,32.17
2023-01-30T02:35:04.334Z,36.10
2023-01-30T02:37:42.666Z,30.25
2023-01-30T02:40:44.078Z,31.90
2023-01-30T02:43:27.607Z,32.60
2023-01-30T03:00:33.291Z,29.67
2023-01-30T03:03:08.498Z,32.25
2023-01-30T03:05:55.861Z,32.58
2023-01-30T03:08:51.529Z,35.17
2023-01-30T03:11:18.402Z,34.13
2023-01-30T03:13:53.813Z,33.75
2023-01-30T03:16:40.545Z,33.85
2023-01-30T03:19:12.558Z,36.17
2023-01-30T03:21:44.698Z,37.30
2023-01-30T03:24:12.824Z,35.80
2023-01-30T03:27:22.413Z,36.70
2023-01-30T03:30:09.110Z,31.67
2023-01-30T03:32:35.692Z,32.70
2023-01-30T03:35:04.651Z,31.45
2023-01-30T03:37:31.525Z,32.58
2023-01-30T03:39:58.955Z,31.10
2023-01-30T03:42:25.629Z,32.95
2023-01-30T04:17:01.615Z,34.47
2023-01-30T04:19:28.242Z,35.33
2023-01-30T04:21:54.854Z,30.42
2023-01-30T04:24:21.397Z,31.17
2023-01-30T04:26:48.004Z,31.48
2023-01-30T04:29:14.619Z,32.92
2023-01-30T04:55:08.986Z,34.88
2023-01-30T04:57:35.656Z,33.08
2023-01-30T05:00:02.242Z,34.63
2023-01-30T05:02:28.789Z,31.35
2023-01-30T05:27:40.609Z,29.48
2023-01-30T05:30:08.047Z,35.03
2023-01-30T05:32:37.030Z,35.30
2023-01-30T05:35:03.793Z,34.17
2023-01-30T05:37:30.439Z,34.47
2023-01-30T06:57:01.676Z,41.80
2023-01-30T06:59:28.353Z,45.35
2023-01-30T07:01:55.034Z,42.33
2023-01-30T07:04:21.801Z,42.17
2023-01-30T07:06:48.604Z,48.80
2023-01-30T07:09:15.328Z,41.88
2023-01-30T07:11:41.911Z,40.90
2023-01-30T07:14:10.004Z,41.20
2023-01-30T07:16:37.300Z,42.40
2023-01-30T07:19:03.865Z,38.53
2023-01-30T07:21:30.432Z,37.78
2023-01-30T07:23:57.798Z,41.20
2023-01-30T07:26:25.665Z,42.92
2023-01-30T07:28:52.313Z,43.45
2023-01-30T07:31:19.012Z,42.13
2023-01-30T07:33:45.648Z,42.08
2023-01-30T07:36:12.222Z,40.08
2023-01-30T07:38:38.963Z,40.05
2023-01-30T07:41:05.735Z,43.72
2023-01-30T07:43:32.342Z,37.78
2023-01-30T07:46:00.522Z,44.42
2023-01-30T07:48:27.065Z,43.13
2023-01-30T07:50:56.807Z,46.72
2023-01-30T07:53:23.428Z,44.35
2023-01-30T07:55:50.031Z,37.97
2023-01-30T07:58:16.936Z,41.37
2023-01-30T08:00:44.558Z,41.30
2023-01-30T08:03:15.917Z,46.42
2023-01-30T08:05:44.232Z,46.47
2023-01-30T08:08:11.044Z,49.78
2023-01-30T08:10:37.623Z,48.85
2023-01-30T08:13:04.361Z,47.35
2023-01-30T08:15:32.928Z,42.62
2023-01-30T08:17:59.920Z,44.13
2023-01-30T08:20:27.760Z,41.28
2023-01-30T08:22:55.310Z,39.63
2023-01-30T08:25:23.011Z,47.15
2023-01-30T08:27:49.717Z,46.20
2023-01-30T08:30:16.968Z,37.08
2023-01-30T08:32:48.745Z,38.88
2023-01-30T08:35:15.531Z,37.20
2023-01-30T08:37:42.708Z,37.50
2023-01-30T08:40:10.662Z,39.20
2023-01-30T09:45:06.917Z,37.28
2023-01-30T09:48:02.629Z,38.75
2023-01-30T09:50:51.702Z,34.97
2023-01-30T09:53:39.222Z,37.70
2023-01-30T09:56:05.971Z,36.35
2023-01-30T09:58:44.564Z,31.65
2023-01-30T10:01:23.480Z,34.42
2023-01-30T10:04:03.758Z,34.70
2023-01-30T10:06:36.033Z,34.38
2023-01-30T10:09:13.492Z,35.77
2023-01-30T10:11:47.852Z,34.33
2023-01-30T10:14:53.549Z,36.67
2023-01-30T10:17:38.309Z,34.53
2023-01-30T10:20:32.793Z,34.50
2023-01-30T10:23:48.886Z,32.58
2023-01-30T10:26:20.022Z,34.58
2023-01-30T10:29:06.719Z,33.40
2023-01-30T10:31:47.558Z,33.53
2023-01-30T10:34:25.700Z,31.87
2023-01-30T10:37:04.291Z,33.58
2023-01-30T10:39:55.900Z,30.10
2023-01-30T10:42:48.504Z,31.60
2023-01-30T10:45:23.217Z,31.92
2023-01-30T10:47:59.712Z,29.02
2023-01-30T10:50:40.519Z,26.98
2023-01-30T10:53:35.948Z,27.58
2023-01-30T10:56:22.627Z,27.98
2023-01-30T10:58:58.919Z,24.95
2023-01-30T11:01:44.237Z,26.17
2023-01-30T11:04:31.068Z,25.15
2023-01-30T11:07:00.764Z,26.02
2023-01-30T11:09:53.648Z,28.15
2023-01-30T11:12:20.220Z,25.23
2023-01-30T11:15:05.438Z,24.27
2023-01-30T11:17:39.784Z,25.70
2023-01-30T11:20:19.253Z,25.25
2023-01-30T11:23:07.469Z,26.30
2023-01-30T11:25:52.827Z,25.92
2023-01-30T11:28:27.093Z,25.73
2023-01-30T11:30:59.960Z,27.42
2023-01-30T11:33:36.430Z,22.08
2023-01-30T11:36:06.976Z,22.37
2023-01-30T11:38:40.333Z,24.73
2023-01-30T11:41:09.921Z,26.33
2023-01-30T11:43:39.840Z,23.33
2023-01-30T11:46:08.964Z,23.05
2023-01-30T11:49:02.372Z,21.10
2023-01-30T11:51:37.534Z,20.48
2023-01-30T11:54:06.122Z,23.40
2023-01-30T11:56:36.141Z,19.48
2023-01-30T11:59:06.590Z,20.73
2023-01-30T12:01:37.169Z,21.08
2023-01-30T12:04:08.625Z,23.15
2023-01-30T12:06:37.617Z,23.80
2023-01-30T12:09:05.248Z,21.02
2023-01-30T12:11:40.245Z,21.73
2023-01-30T12:14:24.210Z,19.80
2023-01-30T12:17:09.653Z,22.05
2023-01-30T12:19:45.422Z,21.95
2023-01-30T12:22:30.882Z,23.83
2023-01-30T12:25:01.246Z,22.62
2023-01-30T12:27:55.283Z,21.15
2023-01-30T12:30:32.343Z,21.62
2023-01-30T12:36:01.591Z,20.20
2023-01-30T12:38:41.600Z,23.90
2023-01-30T12:41:08.101Z,20.92
2023-01-30T12:43:49.928Z,19.90
2023-01-30T12:46:19.336Z,21.42
2023-01-30T12:49:02.470Z,23.48
2023-01-30T12:51:52.898Z,21.12
2023-01-30T12:54:28.264Z,21.23
2023-01-30T12:57:02.485Z,21.98
2023-01-30T12:59:50.541Z,20.02
2023-01-30T13:02:51.674Z,18.75
2023-01-30T13:05:22.403Z,20.65
2023-01-30T13:08:03.155Z,20.00
2023-01-30T13:10:54.302Z,22.77
2023-01-30T13:13:23.799Z,20.33
2023-01-30T13:15:53.380Z,20.25
2023-01-30T13:18:43.062Z,20.65
2023-01-30T13:21:21.193Z,19.60
2023-01-30T13:24:22.239Z,18.65
2023-01-30T13:26:51.012Z,20.50
2023-01-30T13:29:33.008Z,18.87
2023-01-30T13:32:03.610Z,19.37
2023-01-30T13:34:40.955Z,18.25
2023-01-30T13:37:12.419Z,17.17
2023-01-30T13:39:57.093Z,17.95
2023-01-30T13:42:38.766Z,21.45
2023-01-30T13:45:07.070Z,17.80
2023-01-30T13:47:52.873Z,17.67
2023-01-30T13:50:35.907Z,19.00
2023-01-30T13:53:22.757Z,17.40
2023-01-30T14:15:42.420Z,19.33
2023-01-30T14:18:33.888Z,20.05
2023-01-30T14:21:20.434Z,20.77
2023-01-30T14:24:03.191Z,18.15
2023-01-30T14:26:48.247Z,18.23
2023-01-30T14:29:40.963Z,18.67
2023-01-30T14:32:19.021Z,19.40
2023-01-30T14:34:48.042Z,19.48
2023-01-30T14:37:39.385Z,21.33
2023-01-30T14:40:21.163Z,20.12
2023-01-30T14:43:12.657Z,18.30
2023-01-30T14:45:49.247Z,19.35
2023-01-30T14:48:40.277Z,20.37
2023-01-30T14:51:39.791Z,20.50
2023-01-30T14:54:12.930Z,25.70
2023-01-30T14:57:00.277Z,22.95
2023-01-30T14:59:31.829Z,26.80
2023-01-30T15:02:21.796Z,26.90
2023-01-30T15:05:21.429Z,49.25
2023-01-30T15:08:04.664Z,22.23
2023-01-30T15:10:46.297Z,29.15
2023-01-30T15:13:40.969Z,28.38
2023-01-30T15:16:37.916Z,26.20
2023-01-30T15:19:29.285Z,24.08
2023-01-30T15:22:16.012Z,26.75
2023-01-30T15:25:26.303Z,28.58
2023-01-30T15:28:32.972Z,32.28
2023-01-30T15:31:18.000Z,32.55
2023-01-30T15:33:47.397Z,29.30
2023-01-30T15:36:26.875Z,31.27
2023-01-30T15:39:23.890Z,27.13
2023-01-30T15:41:52.746Z,30.45
2023-01-30T15:44:48.581Z,28.83
2023-01-30T15:47:29.056Z,37.22
2023-01-30T15:50:01.511Z,35.47
2023-01-30T15:52:50.612Z,31.35
2023-01-30T15:55:25.615Z,31.87
2023-01-30T15:57:59.421Z,27.17
2023-01-30T16:00:26.498Z,26.00
2023-01-30T16:02:54.284Z,26.52
2023-01-30T16:05:25.346Z,29.40
2023-01-30T16:07:53.959Z,33.35
2023-01-30T16:10:22.202Z,32.38
2023-01-30T16:12:50.768Z,30.62
2023-01-30T16:15:25.831Z,24.80
2023-01-30T16:18:21.663Z,29.27
2023-01-30T16:21:01.481Z,25.90
2023-01-30T16:23:38.760Z,29.80
2023-01-30T16:26:14.282Z,31.55
2023-01-30T16:28:41.062Z,32.80
2023-01-30T16:31:10.885Z,34.75
2023-01-30T16:33:38.247Z,34.30
2023-01-30T16:36:25.095Z,34.70
2023-01-30T16:38:53.993Z,35.78
2023-01-30T16:41:53.823Z,33.03
2023-01-30T16:44:25.420Z,35.72
2023-01-30T16:47:01.035Z,33.25
2023-01-30T16:49:30.553Z,33.47
2023-01-30T16:52:18.574Z,36.45
2023-01-30T16:55:06.882Z,33.78
2023-01-30T16:57:50.433Z,30.75
2023-01-30T17:00:24.709Z,32.05
2023-01-30T17:03:20.456Z,31.58
2023-01-30T17:05:49.425Z,35.05
2023-01-30T17:08:31.410Z,36.22
2023-01-30T17:10:59.474Z,31.95
2023-01-30T17:13:41.763Z,37.00
2023-01-30T17:16:23.741Z,35.03
2023-01-30T17:18:52.349Z,39.40
2023-01-30T17:21:20.796Z,36.85
2023-01-30T17:23:59.977Z,32.55
2023-01-30T17:26:27.003Z,31.62
2023-01-30T17:28:53.746Z,32.83
2023-01-30T17:31:21.145Z,33.08
2023-01-30T17:33:48.200Z,34.53
2023-01-30T17:36:24.072Z,35.60
2023-01-30T17:38:51.469Z,30.83
2023-01-30T17:41:27.073Z,23.73
2023-01-30T17:43:53.744Z,23.40
2023-01-30T17:46:24.104Z,22.08
2023-01-30T17:48:51.795Z,24.55
2023-01-30T17:51:18.447Z,21.87
2023-01-30T17:53:45.221Z,23.73
2023-01-30T17:56:39.291Z,24.23
2023-01-30T17:59:16.455Z,23.77
2023-01-30T18:01:45.207Z,24.75
2023-01-30T18:04:11.886Z,23.35
2023-01-30T18:06:41.178Z,22.75
2023-01-30T18:09:07.996Z,24.58
2023-01-30T18:11:34.584Z,23.67
2023-01-30T18:14:01.137Z,26.12
2023-01-30T18:16:33.076Z,24.80
2023-01-30T18:19:05.572Z,26.10
2023-01-30T18:21:34.060Z,24.27
2023-01-30T18:24:01.115Z,24.58
2023-01-30T18:26:30.100Z,24.17
2023-01-30T18:28:57.218Z,25.55
2023-01-30T18:31:25.361Z,24.70
2023-01-30T18:33:52.638Z,21.75
2023-01-30T18:36:21.143Z,25.92
2023-01-30T18:38:48.589Z,35.97
2023-01-30T18:41:18.020Z,29.67
2023-01-30T18:43:48.083Z,21.10
2023-01-30T18:46:17.431Z,19.90
2023-01-30T18:48:45.210Z,19.73
2023-01-30T18:51:14.684Z,19.37
2023-01-30T18:53:42.651Z,22.05
2023-01-30T18:56:14.703Z,19.42
2023-01-30T18:58:41.516Z,20.10
2023-01-30T19:01:16.197Z,26.95
2023-01-30T19:03:43.431Z,20.88
2023-01-30T19:06:13.072Z,18.17
2023-01-30T19:08:40.976Z,21.17
2023-01-30T19:11:29.427Z,16.73
2023-01-30T19:13:56.892Z,21.80
2023-01-30T19:16:25.487Z,18.90
2023-01-30T19:18:53.553Z,21.02
2023-01-30T19:21:20.758Z,19.80
2023-01-30T19:23:49.136Z,17.92
2023-01-30T19:26:17.134Z,22.10
2023-01-30T19:28:44.803Z,19.95
2023-01-30T19:31:16.155Z,21.50
2023-01-30T19:33:44.395Z,20.50
2023-01-30T19:36:16.880Z,20.42
2023-01-30T19:38:46.226Z,19.90
2023-01-30T19:41:30.671Z,20.40
2023-01-30T19:43:59.352Z,23.12
2023-01-30T19:46:26.807Z,18.17
2023-01-30T19:48:53.455Z,18.35
2023-01-30T19:51:21.208Z,15.20
2023-01-30T19:54:09.638Z,17.08
2023-01-30T19:56:39.220Z,17.45
2023-01-30T19:59:05.922Z,16.02
2023-01-30T20:01:36.961Z,17.45
2023-01-30T20:04:07.010Z,16.37
2023-01-30T20:06:35.200Z,15.60
2023-01-30T20:09:05.289Z,16.95
2023-01-30T20:11:34.524Z,15.82
2023-01-30T20:14:02.046Z,18.40
2023-01-30T20:16:31.284Z,16.75
2023-01-30T20:19:00.418Z,16.20
2023-01-30T20:21:29.029Z,19.20
2023-01-30T20:23:56.507Z,14.80
2023-01-30T20:26:31.068Z,15.75
2023-01-30T20:28:58.533Z,16.70
2023-01-30T20:31:27.463Z,13.93
2023-01-30T20:33:57.422Z,17.42
2023-01-30T20:36:26.711Z,15.55
2023-01-30T20:38:55.674Z,18.02
2023-01-30T20:41:24.913Z,18.52
2023-01-30T20:43:59.584Z,16.20
2023-01-30T20:46:28.510Z,17.00
2023-01-30T20:48:57.302Z,14.93
2023-01-30T20:51:29.390Z,17.77
2023-01-30T20:53:59.920Z,17.53
2023-01-30T20:56:31.666Z,15.15
2023-01-30T20:58:58.361Z,16.42
2023-01-30T21:01:24.961Z,23.15
2023-01-30T21:03:53.372Z,21.33
2023-01-30T21:06:37.097Z,21.12
2023-01-30T21:09:12.659Z,26.65
2023-01-30T21:11:40.324Z,22.73
2023-01-30T21:14:07.523Z,24.87
2023-01-30T21:16:35.883Z,23.00
2023-01-30T21:19:06.019Z,21.30
2023-01-30T21:21:42.838Z,20.40
2023-01-30T21:24:13.389Z,16.85
2023-01-30T21:26:45.935Z,22.58
2023-01-30T21:58:46.859Z,10.55
2023-01-30T22:29:39.763Z,17.50
2023-01-30T22:32:06.335Z,11.00
2023-01-30T22:34:35.783Z,10.68
2023-01-30T22:37:02.550Z,11.38
2023-01-30T22:40:00.287Z,12.23
2023-01-30T22:42:48.516Z,11.85
2023-01-30T22:45:15.144Z,11.32
2023-01-30T22:47:42.149Z,12.37
2023-01-30T22:50:09.325Z,10.27
2023-01-30T22:52:35.898Z,12.65
2023-01-30T22:55:02.548Z,11.05
2023-01-30T22:57:47.019Z,11.38
2023-01-30T23:00:13.946Z,10.68
2023-01-30T23:02:40.830Z,10.25
2023-01-30T23:05:07.841Z,10.43
2023-01-30T23:07:53.128Z,8.82
2023-01-30T23:10:41.651Z,8.93
2023-01-30T23:13:20.678Z,8.15
2023-01-30T23:15:48.269Z,8.82
2023-01-30T23:18:33.963Z,8.57
2023-01-30T23:21:00.987Z,8.40
2023-01-30T23:23:27.840Z,7.05
2023-01-30T23:25:54.455Z,5.68
2023-01-30T23:28:21.026Z,7.85
2023-01-30T23:30:47.638Z,6.97
2023-01-30T23:33:15.264Z,7.82
2023-01-30T23:35:41.824Z,6.10
2023-01-30T23:38:18.993Z,6.90
2023-01-30T23:40:47.088Z,8.73
2023-01-30T23:43:15.376Z,7.05
2023-01-30T23:45:42.256Z,7.18
2023-01-30T23:48:09.332Z,6.32
2023-01-30T23:50:38.724Z,6.28
2023-01-30T23:53:07.237Z,6.40
2023-01-30T23:55:33.805Z,5.85
2023-01-30T23:58:06.507Z,8.27
